Typo, Kentucky
Current Conditions -  °F | °C
As of 4:53 AM on Saturday 20 Dec 2014 (Local Time) from KJKL Reporting Station
Overcast Overcast  
Wind Chill: 27°   Ceiling: 10000
Heat Index: 27°   Visibility: 10mi
Dew Point: 21°   Wind: 3mph
Humidity: 78%   Direction: NA
Pressure: 30.19"   Gusts: NA
Location:  37.2415°N, 83.2013°W
Report Text: KJKL 200953Z AUTO VRB03KT 10SM OVC100 M03/M06 A3019 RMK AO2 SLP233 T10281061
Loading
Personal Weather Stations






























Interactive Weather Map New forecast layout! Learn more

10-Day Weather Forecast

Advertisements
Track Severe Weather on mobile